Time;durP1;ratioP1;P1;durP2;ratioP2;P2;SDS_P1;SDS_P2;PMS_P1;PMS_P2;Temp;Humidity;BMP_temperature;BMP_pressure;BME280_temperature;BME280_humidity;BME280_pressure;Samples;Min_cycle;Max_cycle;Signal;HPM_P1;HPM_P2
2023/02/21 02:15:24;;;;;;;493.10;467.37;;;7.90;99.90;;;;;;5060191;28;20428;-81
2023/02/21 02:18:09;;;;;;;495.70;468.70;;;7.90;99.90;;;;;;5061160;28;20455;-81
2023/02/21 02:21:02;;;;;;;508.13;480.00;;;7.80;99.90;;;;;;5060414;28;20452;-82
2023/02/21 02:24:04;;;;;;;499.07;472.17;;;7.90;99.90;;;;;;5060092;28;20482;-82
2023/02/21 02:27:01;;;;;;;502.67;475.73;;;7.90;99.90;;;;;;5044158;28;20465;-81
2023/02/21 02:29:48;;;;;;;510.97;482.57;;;7.80;99.90;;;;;;5060247;28;20451;-82
2023/02/21 02:32:38;;;;;;;508.93;480.67;;;7.90;99.90;;;;;;5060578;28;20438;-81
2023/02/21 02:35:09;;;;;;;509.33;480.67;;;7.90;99.90;;;;;;5059474;28;20562;-82
2023/02/21 02:37:45;;;;;;;516.80;487.27;;;7.80;99.90;;;;;;5060491;28;20455;-81
2023/02/21 02:40:24;;;;;;;510.80;483.07;;;7.80;99.90;;;;;;5060227;28;20458;-81
2023/02/21 02:43:02;;;;;;;505.20;477.63;;;7.90;99.90;;;;;;5059647;28;20490;-81
2023/02/21 02:45:33;;;;;;;506.63;477.63;;;7.90;99.90;;;;;;5060177;28;20431;-82
2023/02/21 02:48:07;;;;;;;505.60;477.03;;;7.90;99.90;;;;;;5059954;28;20436;-81
2023/02/21 02:50:37;;;;;;;509.13;480.33;;;7.90;99.90;;;;;;5059292;28;20487;-83
2023/02/21 02:53:04;;;;;;;510.07;481.70;;;7.90;99.90;;;;;;5059095;28;20482;-81
2023/02/21 02:55:37;;;;;;;509.20;481.20;;;7.90;99.90;;;;;;5059937;28;20451;-81
2023/02/21 02:58:05;;;;;;;513.80;484.17;;;7.90;99.90;;;;;;5059638;28;20438;-82
2023/02/21 03:00:34;;;;;;;503.43;476.20;;;7.90;99.90;;;;;;5060144;28;20463;-81
2023/02/21 03:03:17;;;;;;;487.70;460.20;;;7.90;99.90;;;;;;5057864;28;20485;-81
2023/02/21 03:06:00;;;;;;;494.63;465.67;;;7.90;99.90;;;;;;5059075;28;20436;-82
2023/02/21 03:08:38;;;;;;;503.40;474.27;;;7.80;99.90;;;;;;5059721;28;20442;-81
2023/02/21 03:11:11;;;;;;;497.37;469.93;;;7.90;99.90;;;;;;5059189;28;20459;-82
2023/02/21 03:13:43;;;;;;;492.87;465.20;;;7.90;99.90;;;;;;5058779;28;20470;-81
2023/02/21 03:16:17;;;;;;;487.53;459.73;;;7.90;99.90;;;;;;5058757;28;20456;-81
2023/02/21 03:18:48;;;;;;;485.80;459.90;;;7.90;99.90;;;;;;5058863;28;20953;-82
2023/02/21 03:21:20;;;;;;;487.87;461.03;;;7.80;99.90;;;;;;5059339;28;20431;-83
2023/02/21 03:23:52;;;;;;;480.90;455.00;;;7.90;99.90;;;;;;5059079;28;20475;-82
2023/02/21 03:26:19;;;;;;;483.77;455.53;;;7.80;99.90;;;;;;5059441;28;20462;-83
2023/02/21 03:28:47;;;;;;;484.90;458.00;;;7.90;99.90;;;;;;5058797;28;20454;-82
2023/02/21 03:31:17;;;;;;;487.37;460.33;;;7.90;99.90;;;;;;5059185;28;20486;-82
2023/02/21 03:33:44;;;;;;;493.53;465.23;;;7.90;99.90;;;;;;5059155;28;20480;-81
2023/02/21 03:36:11;;;;;;;491.53;463.67;;;7.80;99.90;;;;;;5059499;28;20954;-81
2023/02/21 03:38:40;;;;;;;492.67;464.83;;;7.90;99.90;;;;;;5059635;28;20455;-82
2023/02/21 03:41:09;;;;;;;491.37;464.00;;;7.90;99.90;;;;;;5059284;28;20980;-81
2023/02/21 03:43:35;;;;;;;487.63;459.97;;;7.80;99.90;;;;;;5060028;28;20486;-82
2023/02/21 03:46:02;;;;;;;484.47;456.70;;;7.90;99.90;;;;;;5059158;28;20991;-81
2023/02/21 03:48:29;;;;;;;486.73;458.10;;;7.90;99.90;;;;;;5059444;28;20451;-81
2023/02/21 03:50:55;;;;;;;483.97;456.47;;;7.80;99.90;;;;;;5058995;28;20475;-81
2023/02/21 03:53:22;;;;;;;492.97;463.10;;;7.90;99.90;;;;;;5059368;28;20486;-81
2023/02/21 03:55:50;;;;;;;490.17;462.20;;;7.90;99.90;;;;;;5059124;28;20827;-82
2023/02/21 03:58:17;;;;;;;495.73;468.00;;;7.90;99.90;;;;;;5059229;28;20462;-81
2023/02/21 04:00:44;;;;;;;501.20;472.67;;;7.80;99.90;;;;;;5059236;28;20817;-81
2023/02/21 04:03:11;;;;;;;503.30;474.00;;;7.90;99.90;;;;;;5059369;28;20475;-82
2023/02/21 04:05:37;;;;;;;497.07;468.90;;;7.90;99.90;;;;;;5059138;28;20455;-81
2023/02/21 04:08:04;;;;;;;507.20;476.77;;;7.80;99.90;;;;;;5059404;28;20455;-81
2023/02/21 04:10:31;;;;;;;504.70;475.20;;;7.80;99.90;;;;;;5059602;28;20478;-82
2023/02/21 04:12:59;;;;;;;502.10;472.10;;;7.80;99.90;;;;;;5059390;28;20540;-81
2023/02/21 04:15:26;;;;;;;501.23;472.10;;;7.80;99.90;;;;;;5062848;28;20478;-82
2023/02/21 04:17:53;;;;;;;502.03;472.20;;;7.90;99.90;;;;;;5062289;28;20462;-81
2023/02/21 04:20:19;;;;;;;514.70;483.80;;;7.80;99.90;;;;;;5062662;28;20447;-81
2023/02/21 04:22:46;;;;;;;505.87;476.13;;;7.90;99.90;;;;;;5062160;28;20477;-80
2023/02/21 04:25:14;;;;;;;509.10;479.43;;;7.80;99.90;;;;;;5062329;28;20455;-81
2023/02/21 04:27:40;;;;;;;517.20;486.03;;;7.80;99.90;;;;;;5062207;28;20458;-80
2023/02/21 04:30:10;;;;;;;522.23;488.50;;;7.80;99.90;;;;;;5062855;28;20482;-83
2023/02/21 04:32:37;;;;;;;519.37;488.40;;;7.80;99.90;;;;;;5062118;28;20497;-81
2023/02/21 04:35:04;;;;;;;521.17;489.97;;;7.80;99.90;;;;;;5062335;28;20818;-82
2023/02/21 04:37:31;;;;;;;527.17;496.57;;;7.80;99.90;;;;;;5063089;28;20475;-81
2023/02/21 04:39:57;;;;;;;527.57;496.37;;;7.80;99.90;;;;;;5063295;28;20457;-82
2023/02/21 04:42:24;;;;;;;532.80;500.77;;;7.80;99.90;;;;;;5062921;28;20855;-81
2023/02/21 04:44:51;;;;;;;536.60;503.90;;;7.70;99.90;;;;;;5063030;28;20825;-81
2023/02/21 04:47:19;;;;;;;543.00;510.60;;;7.80;99.90;;;;;;5062111;28;20457;-82
2023/02/21 04:49:50;;;;;;;557.77;524.13;;;7.70;99.90;;;;;;5062222;28;20451;-81
2023/02/21 04:52:18;;;;;;;560.80;527.10;;;7.70;99.90;;;;;;5062667;28;20463;-81
2023/02/21 04:54:45;;;;;;;561.87;526.80;;;7.80;99.90;;;;;;5062170;28;20451;-82
2023/02/21 04:57:12;;;;;;;578.17;542.87;;;7.80;99.90;;;;;;5062239;28;20470;-81
2023/02/21 04:59:39;;;;;;;569.97;534.93;;;7.70;99.90;;;;;;5062367;28;20462;-82
2023/02/21 05:02:07;;;;;;;572.17;535.10;;;7.70;99.90;;;;;;5061792;28;20470;-82
2023/02/21 05:04:35;;;;;;;569.80;533.57;;;7.70;99.90;;;;;;5062295;28;20452;-82
2023/02/21 05:07:02;;;;;;;565.87;529.93;;;7.70;99.90;;;;;;5061886;28;20466;-81
2023/02/21 05:09:29;;;;;;;576.80;540.30;;;7.70;99.90;;;;;;5062155;28;20455;-81
2023/02/21 05:11:55;;;;;;;572.07;535.07;;;7.70;99.90;;;;;;5062024;28;20479;-81
2023/02/21 05:14:22;;;;;;;579.43;541.20;;;7.70;99.90;;;;;;5062062;28;20476;-81
2023/02/21 05:16:49;;;;;;;590.17;551.77;;;7.70;99.90;;;;;;5061575;28;20462;-81
2023/02/21 05:19:26;;;;;;;592.90;553.90;;;7.70;99.90;;;;;;5061285;28;20448;-81
2023/02/21 05:21:55;;;;;;;604.00;564.90;;;7.70;99.90;;;;;;5061584;28;20443;-81
2023/02/21 05:24:22;;;;;;;598.90;562.00;;;7.70;99.90;;;;;;5060766;28;20498;-81
2023/02/21 05:26:49;;;;;;;604.93;568.20;;;7.70;99.90;;;;;;5060245;28;20455;-82
2023/02/21 05:29:16;;;;;;;624.87;585.97;;;7.60;99.90;;;;;;5060845;28;20462;-81
2023/02/21 05:31:43;;;;;;;618.33;580.20;;;7.60;99.90;;;;;;5061213;28;20479;-81
2023/02/21 05:34:10;;;;;;;631.70;591.20;;;7.60;99.90;;;;;;5061408;28;20829;-82
2023/02/21 05:36:37;;;;;;;654.30;611.63;;;7.60;99.90;;;;;;5060540;28;20451;-81
2023/02/21 05:39:07;;;;;;;642.47;599.57;;;7.60;99.90;;;;;;5060340;28;20448;-81
2023/02/21 05:41:34;;;;;;;649.53;607.00;;;7.50;99.90;;;;;;5061383;28;20462;-81
2023/02/21 05:44:01;;;;;;;661.43;616.13;;;7.60;99.90;;;;;;5060344;28;20483;-81
2023/02/21 05:46:30;;;;;;;658.50;615.73;;;7.50;99.90;;;;;;5060975;28;20451;-82
2023/02/21 05:48:58;;;;;;;665.83;622.17;;;7.50;99.90;;;;;;5059651;28;20475;-81
2023/02/21 05:51:25;;;;;;;679.47;633.73;;;7.50;99.90;;;;;;5059639;28;20506;-81
2023/02/21 05:53:53;;;;;;;681.73;636.50;;;7.50;99.90;;;;;;5059021;28;20998;-80
2023/02/21 05:56:21;;;;;;;687.87;641.90;;;7.40;99.90;;;;;;5060144;28;20534;-81
2023/02/21 05:58:49;;;;;;;708.00;660.50;;;7.40;99.90;;;;;;5059797;28;20486;-80
2023/02/21 06:01:16;;;;;;;720.43;673.03;;;7.40;99.90;;;;;;5061070;28;21033;-81
2023/02/21 06:03:42;;;;;;;726.70;677.30;;;7.30;99.90;;;;;;5061094;28;20474;-81
2023/02/21 06:06:09;;;;;;;726.43;677.33;;;7.30;99.90;;;;;;5060315;28;20452;-81
2023/02/21 06:08:43;;;;;;;733.77;683.10;;;7.30;99.90;;;;;;5060445;28;20458;-81
2023/02/21 06:11:10;;;;;;;752.50;699.27;;;7.30;99.90;;;;;;5060100;28;20471;-81
2023/02/21 06:13:38;;;;;;;769.27;715.00;;;7.30;99.90;;;;;;5060947;28;20471;-83
2023/02/21 06:16:06;;;;;;;757.73;701.90;;;7.30;99.90;;;;;;5058587;28;20451;-80
2023/02/21 06:18:33;;;;;;;751.07;696.17;;;7.30;99.90;;;;;;5058650;28;20481;-80
2023/02/21 06:20:59;;;;;;;758.37;702.17;;;7.30;99.90;;;;;;5059940;28;20550;-81
2023/02/21 06:23:26;;;;;;;763.87;706.37;;;7.30;99.90;;;;;;5059604;28;20480;-81
2023/02/21 06:25:53;;;;;;;763.60;705.83;;;7.30;99.90;;;;;;5060370;28;20459;-82
2023/02/21 06:28:20;;;;;;;769.50;711.23;;;7.30;99.90;;;;;;5059841;28;20958;-83
2023/02/21 06:30:48;;;;;;;807.53;747.67;;;7.30;99.90;;;;;;5059907;28;20479;-81
2023/02/21 06:33:14;;;;;;;791.63;733.37;;;7.20;99.90;;;;;;5059562;28;20475;-81
2023/02/21 06:35:41;;;;;;;784.50;726.57;;;7.20;99.90;;;;;;5057746;28;20458;-81
2023/02/21 06:38:08;;;;;;;776.70;718.50;;;7.20;99.90;;;;;;5058486;28;20456;-81
2023/02/21 06:40:35;;;;;;;774.73;716.23;;;7.20;99.90;;;;;;5058529;28;20452;-80
2023/02/21 06:43:01;;;;;;;794.97;736.33;;;7.20;99.90;;;;;;5060015;28;20483;-81
2023/02/21 06:45:28;;;;;;;787.93;729.23;;;7.10;99.90;;;;;;5062909;28;20461;-81
2023/02/21 06:47:59;;;;;;;795.63;735.33;;;7.20;99.90;;;;;;5063488;28;20516;-81
2023/02/21 06:50:26;;;;;;;813.27;753.00;;;7.10;99.90;;;;;;5062279;28;20455;-82
2023/02/21 06:52:53;;;;;;;803.47;741.97;;;7.20;99.90;;;;;;5061627;28;20582;-83
2023/02/21 06:55:20;;;;;;;787.57;726.10;;;7.20;99.90;;;;;;5058496;28;20832;-81
2023/02/21 06:57:48;;;;;;;798.93;734.63;;;7.20;99.90;;;;;;5059503;28;20906;-83
2023/02/21 07:00:16;;;;;;;800.33;737.57;;;7.20;99.90;;;;;;5059248;28;20463;-80
2023/02/21 07:02:42;;;;;;;804.27;740.80;;;7.20;99.90;;;;;;5059720;28;20463;-81
2023/02/21 07:05:12;;;;;;;804.00;740.20;;;7.20;99.90;;;;;;5059089;28;20455;-81
2023/02/21 07:07:38;;;;;;;791.67;728.60;;;7.20;99.90;;;;;;5058353;28;20506;-80
2023/02/21 07:10:06;;;;;;;801.93;738.03;;;7.20;99.90;;;;;;5058860;28;20455;-81
2023/02/21 07:12:32;;;;;;;806.70;742.97;;;7.30;99.90;;;;;;5059690;28;20475;-81
2023/02/21 07:14:59;;;;;;;806.77;740.90;;;7.30;99.90;;;;;;5059352;28;20451;-81
2023/02/21 07:17:26;;;;;;;808.33;743.83;;;7.30;99.90;;;;;;5059536;28;20448;-80
2023/02/21 07:19:52;;;;;;;810.27;746.73;;;7.40;99.90;;;;;;5059591;28;20854;-80
2023/02/21 07:22:24;;;;;;;807.97;742.60;;;7.40;99.90;;;;;;5060130;28;20824;-81
2023/02/21 07:24:51;;;;;;;815.13;751.67;;;7.40;99.90;;;;;;5059048;28;20458;-82
2023/02/21 07:27:18;;;;;;;814.13;750.50;;;7.40;99.90;;;;;;5059851;28;20455;-81
2023/02/21 07:29:46;;;;;;;803.20;740.97;;;7.40;99.90;;;;;;5059171;28;20459;-81
2023/02/21 07:32:15;;;;;;;817.70;754.40;;;7.40;99.90;;;;;;5061010;28;20486;-81
2023/02/21 07:34:45;;;;;;;820.83;758.83;;;7.50;99.90;;;;;;5059577;28;20965;-80
2023/02/21 07:37:12;;;;;;;782.70;721.47;;;7.50;99.90;;;;;;5060203;28;20485;-80
2023/02/21 07:39:41;;;;;;;780.70;721.13;;;7.50;99.90;;;;;;5060360;28;20451;-83
2023/02/21 07:42:08;;;;;;;793.07;732.20;;;7.50;99.90;;;;;;5059479;28;20530;-79
2023/02/21 07:44:35;;;;;;;771.93;714.27;;;7.50;99.90;;;;;;5059439;28;21013;-80
2023/02/21 07:47:01;;;;;;;770.27;712.17;;;7.50;99.90;;;;;;5057683;28;20464;-80
2023/02/21 07:49:28;;;;;;;773.93;715.37;;;7.50;99.90;;;;;;5062544;28;20451;-80
2023/02/21 07:51:55;;;;;;;778.17;720.53;;;7.50;99.90;;;;;;5062809;28;20478;-81
2023/02/21 07:54:22;;;;;;;769.03;711.07;;;7.50;99.90;;;;;;5064991;28;20471;-81
2023/02/21 07:56:51;;;;;;;777.50;718.00;;;7.50;99.90;;;;;;5065601;28;20825;-80
2023/02/21 07:59:18;;;;;;;778.07;719.37;;;7.50;99.90;;;;;;5063365;28;20497;-80
2023/02/21 08:01:47;;;;;;;780.23;721.47;;;7.50;99.90;;;;;;5065245;28;20911;-80
2023/02/21 08:04:19;;;;;;;781.80;723.30;;;7.50;99.90;;;;;;5063651;28;20558;-80
2023/02/21 08:06:46;;;;;;;778.87;720.50;;;7.50;99.90;;;;;;5063143;28;20479;-81
2023/02/21 08:09:13;;;;;;;788.73;730.17;;;7.50;99.90;;;;;;5064203;28;20455;-79
2023/02/21 08:11:40;;;;;;;795.57;736.97;;;7.50;99.90;;;;;;5064538;28;20471;-79
2023/02/21 08:14:09;;;;;;;792.03;733.13;;;7.50;99.90;;;;;;5061027;28;20477;-80
2023/02/21 08:16:36;;;;;;;773.50;717.40;;;7.50;99.90;;;;;;5063028;28;20483;-80
2023/02/21 08:19:04;;;;;;;759.27;703.03;;;7.40;99.90;;;;;;5065497;28;20451;-80
2023/02/21 08:21:31;;;;;;;762.53;706.03;;;7.50;99.90;;;;;;5065943;28;20542;-81
2023/02/21 08:23:58;;;;;;;755.03;698.97;;;7.50;99.90;;;;;;5065930;28;20486;-81
2023/02/21 08:26:26;;;;;;;740.73;685.30;;;7.60;99.90;;;;;;5066699;28;20465;-81
2023/02/21 08:29:20;;;;;;;734.07;678.63;;;7.60;99.90;;;;;;5067550;28;20462;-83
2023/02/21 08:31:50;;;;;;;726.13;672.23;;;7.60;99.90;;;;;;5061722;28;20563;-80
2023/02/21 08:34:21;;;;;;;736.03;681.40;;;7.60;99.90;;;;;;5062678;28;20551;-79
2023/02/21 08:36:51;;;;;;;743.37;687.33;;;7.50;99.90;;;;;;5064115;28;20982;-82
2023/02/21 08:39:18;;;;;;;745.10;689.10;;;7.50;99.90;;;;;;5063987;28;20518;-80
2023/02/21 08:41:47;;;;;;;746.63;690.50;;;7.60;99.90;;;;;;5063851;28;20488;-81
2023/02/21 08:44:16;;;;;;;737.40;681.80;;;7.50;99.90;;;;;;5060035;28;20483;-79
2023/02/21 08:46:44;;;;;;;737.37;682.03;;;7.50;99.90;;;;;;5061655;28;20458;-81
2023/02/21 08:49:11;;;;;;;743.93;687.80;;;7.50;99.90;;;;;;5061057;28;20465;-81
2023/02/21 08:51:38;;;;;;;746.90;692.53;;;7.50;99.90;;;;;;5062768;28;21001;-81
2023/02/21 08:54:06;;;;;;;756.57;700.77;;;7.50;99.90;;;;;;5061689;28;20481;-81
2023/02/21 08:56:34;;;;;;;746.43;691.13;;;7.50;99.90;;;;;;5059385;28;20486;-81
2023/02/21 08:59:02;;;;;;;744.03;686.97;;;7.50;99.90;;;;;;5060016;28;20458;-80
2023/02/21 09:01:32;;;;;;;716.83;663.70;;;7.60;99.90;;;;;;5062663;28;20946;-81
2023/02/21 09:04:00;;;;;;;714.63;660.73;;;7.60;99.90;;;;;;5062548;28;20477;-81
2023/02/21 09:06:27;;;;;;;708.80;656.20;;;7.60;99.90;;;;;;5063195;28;20461;-81
2023/02/21 09:08:54;;;;;;;698.67;646.30;;;7.60;99.90;;;;;;5062997;28;20485;-81
2023/02/21 09:11:21;;;;;;;698.03;646.30;;;7.60;99.90;;;;;;5061845;28;20458;-81
2023/02/21 09:13:47;;;;;;;676.80;629.27;;;7.70;99.90;;;;;;5063089;28;20471;-81
2023/02/21 09:16:14;;;;;;;667.93;620.57;;;7.70;99.90;;;;;;5059716;28;20474;-81
2023/02/21 09:18:41;;;;;;;659.83;612.30;;;7.70;99.90;;;;;;5061061;28;20443;-81
2023/02/21 09:21:09;;;;;;;650.70;605.10;;;7.70;99.90;;;;;;5060595;28;20451;-79
2023/02/21 09:23:35;;;;;;;634.40;591.37;;;7.70;99.90;;;;;;5060371;28;20474;-81
2023/02/21 09:26:02;;;;;;;629.37;587.33;;;7.80;99.90;;;;;;5059793;28;20463;-81
2023/02/21 09:28:30;;;;;;;609.60;569.10;;;7.80;99.90;;;;;;5059694;28;20451;-81
2023/02/21 09:30:57;;;;;;;603.93;565.20;;;7.80;99.90;;;;;;5059998;28;20514;-81
2023/02/21 09:33:24;;;;;;;588.87;550.70;;;7.90;99.90;;;;;;5059747;28;20479;-80
2023/02/21 09:35:50;;;;;;;570.00;535.10;;;8.00;99.90;;;;;;5059259;28;20458;-80
2023/02/21 09:38:18;;;;;;;537.73;504.80;;;8.00;99.90;;;;;;5059440;28;20505;-82
2023/02/21 09:40:48;;;;;;;520.07;487.83;;;8.00;99.90;;;;;;5058808;28;20447;-81
2023/02/21 09:43:18;;;;;;;477.83;450.60;;;8.10;99.90;;;;;;5059897;28;20479;-81
2023/02/21 09:45:46;;;;;;;447.63;421.73;;;8.10;99.90;;;;;;5059584;28;20863;-82
2023/02/21 09:48:16;;;;;;;426.00;402.53;;;8.20;99.90;;;;;;5059745;28;20527;-81
2023/02/21 09:50:46;;;;;;;412.23;388.57;;;8.30;99.90;;;;;;5059674;28;20542;-80
2023/02/21 09:53:20;;;;;;;373.90;352.83;;;8.40;99.90;;;;;;5059719;28;20475;-81
2023/02/21 09:55:48;;;;;;;351.93;333.23;;;8.50;99.90;;;;;;5059086;28;20826;-80
2023/02/21 09:58:18;;;;;;;329.47;312.10;;;8.60;99.90;;;;;;5059495;28;20451;-80
2023/02/21 10:00:46;;;;;;;306.43;290.53;;;8.50;99.90;;;;;;5058980;28;20812;-81
2023/02/21 10:03:31;;;;;;;276.43;261.27;;;8.70;99.90;;;;;;5058920;28;20494;-81
2023/02/21 10:06:05;;;;;;;257.90;245.30;;;8.70;99.90;;;;;;5062889;28;20482;-81
2023/02/21 10:08:40;;;;;;;230.23;218.57;;;8.70;99.90;;;;;;5063525;28;20953;-80
2023/02/21 10:11:22;;;;;;;211.23;200.73;;;8.60;99.90;;;;;;5062764;28;20482;-81
2023/02/21 10:13:56;;;;;;;213.67;203.00;;;8.70;99.90;;;;;;5063270;28;20507;-81
2023/02/21 10:16:28;;;;;;;190.40;180.33;;;8.70;99.90;;;;;;5059347;28;20457;-82
2023/02/21 10:19:04;;;;;;;173.97;164.63;;;8.80;99.90;;;;;;5058092;28;20446;-81
2023/02/21 10:21:35;;;;;;;166.10;156.70;;;8.80;99.90;;;;;;5058641;28;21039;-79
2023/02/21 10:24:11;;;;;;;129.80;122.53;;;8.90;99.90;;;;;;5059005;28;20496;-81
2023/02/21 10:26:41;;;;;;;123.43;115.37;;;8.90;99.90;;;;;;5058400;28;20458;-83
2023/02/21 10:29:16;;;;;;;105.20;99.00;;;8.90;99.90;;;;;;5059037;28;20486;-81
2023/02/21 10:31:45;;;;;;;70.53;64.20;;;8.90;99.90;;;;;;5056267;28;20830;-81
2023/02/21 10:34:23;;;;;;;88.67;82.47;;;8.90;99.90;;;;;;5058068;28;20533;-82
2023/02/21 10:36:51;;;;;;;84.23;78.03;;;8.90;99.90;;;;;;5058126;28;20546;-82
2023/02/21 10:39:22;;;;;;;63.70;57.87;;;9.10;99.90;;;;;;5058358;28;20459;-81
2023/02/21 10:41:51;;;;;;;42.30;38.07;;;9.20;99.90;;;;;;5057918;28;20447;-82
2023/02/21 10:44:23;;;;;;;37.80;28.93;;;9.30;99.90;;;;;;5057830;28;20502;-82
2023/02/21 10:46:55;;;;;;;40.47;28.23;;;9.40;99.90;;;;;;5057698;28;20841;-83
2023/02/21 10:49:27;;;;;;;36.13;25.43;;;9.30;99.90;;;;;;5058710;28;20455;-82
2023/02/21 10:52:05;;;;;;;30.03;25.20;;;9.40;99.90;;;;;;5058940;28;20479;-82
2023/02/21 10:54:33;;;;;;;33.77;25.00;;;9.50;99.90;;;;;;5058221;28;20467;-84
2023/02/21 10:57:03;;;;;;;34.23;21.30;;;9.60;99.90;;;;;;5058030;28;20461;-82
2023/02/21 10:59:32;;;;;;;27.37;19.10;;;9.60;99.90;;;;;;5058312;28;20832;-81
2023/02/21 11:01:59;;;;;;;36.10;20.23;;;9.60;99.90;;;;;;5058377;28;20837;-82
2023/02/21 11:04:30;;;;;;;33.93;20.37;;;9.70;99.90;;;;;;5058291;28;20475;-81
2023/02/21 11:07:00;;;;;;;36.10;17.20;;;9.70;99.90;;;;;;5058483;28;20527;-82
2023/02/21 11:09:35;;;;;;;35.50;17.90;;;9.80;99.90;;;;;;5058280;28;20454;-84
2023/02/21 11:12:06;;;;;;;31.23;18.23;;;9.70;99.90;;;;;;5058456;28;20825;-82
2023/02/21 11:14:34;;;;;;;33.30;17.33;;;9.70;99.90;;;;;;5058840;28;20458;-83
2023/02/21 11:17:06;;;;;;;32.53;17.70;;;9.70;99.90;;;;;;5058067;28;20459;-84
2023/02/21 11:19:47;;;;;;;37.90;20.23;;;9.50;99.90;;;;;;5058073;28;20513;-83
2023/02/21 11:22:14;;;;;;;36.10;22.37;;;9.40;99.90;;;;;;5058257;28;20451;-82
2023/02/21 11:24:52;;;;;;;35.37;22.30;;;9.40;99.90;;;;;;5061672;28;20458;-81
2023/02/21 11:27:19;;;;;;;26.63;21.60;;;9.40;99.90;;;;;;5062740;28;20452;-80
2023/02/21 11:29:49;;;;;;;32.87;21.80;;;9.50;99.90;;;;;;5062347;28;20451;-82
2023/02/21 11:32:24;;;;;;;30.80;21.50;;;9.60;99.90;;;;;;5064754;28;20447;-82
2023/02/21 11:34:51;;;;;;;29.13;20.00;;;9.70;99.90;;;;;;5061939;28;20458;-81
2023/02/21 11:37:18;;;;;;;29.00;17.07;;;9.70;99.90;;;;;;5062346;28;20462;-82
2023/02/21 11:39:52;;;;;;;34.10;20.83;;;9.70;99.90;;;;;;5059576;28;20536;-81
2023/02/21 11:42:28;;;;;;;33.13;19.13;;;9.60;99.90;;;;;;5062348;28;20185;-81
2023/02/21 11:45:12;;;;;;;26.90;16.20;;;9.80;99.90;;;;;;5060636;28;20443;-80
2023/02/21 11:47:44;;;;;;;26.20;14.27;;;9.90;99.90;;;;;;5061649;28;20455;-81
2023/02/21 11:50:18;;;;;;;29.00;13.93;;;10.00;99.90;;;;;;5062096;28;20459;-81
2023/02/21 11:52:50;;;;;;;31.47;14.67;;;9.80;99.90;;;;;;5061914;28;20493;-81
2023/02/21 11:55:20;;;;;;;24.90;13.03;;;9.90;99.90;;;;;;5061513;28;20447;-81
2023/02/21 11:57:55;;;;;;;27.60;13.53;;;10.00;99.90;;;;;;5061145;28;20452;-82
2023/02/21 12:00:28;;;;;;;27.57;14.40;;;10.20;99.90;;;;;;5060925;28;20466;-81
2023/02/21 12:03:08;;;;;;;23.20;13.37;;;10.20;99.90;;;;;;5061160;28;20514;-81
2023/02/21 12:05:48;;;;;;;26.10;12.63;;;10.10;99.90;;;;;;5061674;28;20842;-82
2023/02/21 12:08:27;;;;;;;31.83;14.40;;;10.30;99.90;;;;;;5061951;28;20991;-82
2023/02/21 12:11:02;;;;;;;25.57;13.03;;;10.40;99.90;;;;;;5061381;28;20875;-81
2023/02/21 12:13:38;;;;;;;28.47;13.03;;;10.30;99.90;;;;;;5062578;28;20483;-82
2023/02/21 12:16:13;;;;;;;29.27;14.03;;;10.30;99.90;;;;;;5064710;28;20534;-82
2023/02/21 12:18:52;;;;;;;28.57;16.97;;;10.50;99.90;;;;;;5064539;28;20463;-81
2023/02/21 12:21:45;;;;;;;32.63;14.73;;;10.40;99.90;;;;;;5061879;28;20526;-81
2023/02/21 12:24:27;;;;;;;30.93;14.33;;;10.40;99.90;;;;;;5054858;28;20466;-82
2023/02/21 12:27:00;;;;;;;29.07;14.53;;;10.20;99.90;;;;;;5060672;28;20447;-81
2023/02/21 12:29:42;;;;;;;23.83;13.10;;;10.10;99.90;;;;;;5060993;28;20451;-82
2023/02/21 12:32:25;;;;;;;29.33;13.10;;;10.00;99.90;;;;;;5065005;28;20831;-82
2023/02/21 12:35:09;;;;;;;26.83;13.80;;;9.90;99.90;;;;;;5062721;28;20515;-81
2023/02/21 12:37:42;;;;;;;32.80;15.70;;;9.90;99.90;;;;;;5062415;28;20514;-81
2023/02/21 12:40:18;;;;;;;32.03;14.77;;;10.00;99.90;;;;;;5064477;28;21139;-81
2023/02/21 12:43:00;;;;;;;28.20;13.67;;;10.10;99.90;;;;;;5062729;28;20501;-82
2023/02/21 12:45:45;;;;;;;27.77;14.63;;;10.10;99.90;;;;;;5061316;28;20477;-84
2023/02/21 12:48:19;;;;;;;27.23;13.77;;;10.20;99.90;;;;;;5060820;28;20458;-81
2023/02/21 12:50:50;;;;;;;25.47;13.10;;;10.40;99.90;;;;;;5061211;28;20451;-82
2023/02/21 12:53:22;;;;;;;30.23;14.47;;;10.50;99.90;;;;;;5060751;28;20502;-80
2023/02/21 12:55:55;;;;;;;24.40;12.63;;;10.70;99.90;;;;;;5063089;28;20462;-82
2023/02/21 12:58:30;;;;;;;38.60;15.97;;;10.90;99.90;;;;;;5060243;28;20451;-83
2023/02/21 13:01:00;;;;;;;35.53;15.50;;;11.00;99.90;;;;;;5063185;28;20546;-82
2023/02/21 13:03:36;;;;;;;29.93;14.57;;;11.00;99.90;;;;;;5063121;28;20463;-82
2023/02/21 13:06:09;;;;;;;30.10;13.63;;;11.10;99.90;;;;;;5061714;28;20451;-81
2023/02/21 13:08:46;;;;;;;29.90;14.70;;;11.20;99.90;;;;;;5060229;28;20466;-80
2023/02/21 13:11:17;;;;;;;37.50;15.60;;;11.20;99.90;;;;;;5060638;28;20451;-84
2023/02/21 13:13:46;;;;;;;37.00;16.43;;;11.20;99.90;;;;;;5061150;28;20501;-83
2023/02/21 13:16:14;;;;;;;31.63;15.80;;;11.30;99.90;;;;;;5063821;28;20464;-81
2023/02/21 13:18:45;;;;;;;35.43;16.60;;;11.30;99.90;;;;;;5065926;28;20562;-82
2023/02/21 13:21:24;;;;;;;30.57;16.23;;;11.30;99.90;;;;;;5064060;28;20458;-82
2023/02/21 13:24:31;;;;;;;34.07;16.43;;;11.20;99.90;;;;;;5062763;28;20900;-81
2023/02/21 13:27:18;;;;;;;34.07;14.87;;;11.10;99.90;;;;;;5062599;28;20454;-82
2023/02/21 13:29:48;;;;;;;27.93;13.40;;;11.10;99.90;;;;;;5061234;28;20841;-82
2023/02/21 13:32:18;;;;;;;33.20;15.50;;;11.20;99.90;;;;;;5062833;28;20455;-82
2023/02/21 13:34:49;;;;;;;34.40;15.57;;;11.30;99.90;;;;;;5060044;28;20479;-82
2023/02/21 13:37:21;;;;;;;32.63;15.47;;;11.50;99.90;;;;;;5061315;28;20455;-80
2023/02/21 13:39:51;;;;;;;34.00;17.15;;;11.20;99.90;;;;;;5058818;28;20456;-81
2023/02/21 13:42:20;;;;;;;36.60;16.50;;;11.10;99.90;;;;;;5059392;28;20193;-81
2023/02/21 13:44:51;;;;;;;28.90;14.20;;;11.10;99.90;;;;;;5060618;28;20448;-82
2023/02/21 13:47:19;;;;;;;30.33;17.43;;;10.80;99.90;;;;;;5059933;28;20443;-84
2023/02/21 13:49:49;;;;;;;30.93;16.00;;;10.70;99.90;;;;;;5059763;28;20451;-82
2023/02/21 13:52:52;;;;;;;34.73;16.53;;;10.50;99.90;;;;;;5060811;28;20486;-82
2023/02/21 13:55:30;;;;;;;34.20;17.27;;;10.70;99.90;;;;;;5059458;28;20451;-82
2023/02/21 13:58:36;;;;;;;41.23;18.87;;;10.50;99.90;;;;;;5060121;28;20483;-82
2023/02/21 14:01:51;;;;;;;43.67;18.90;;;10.50;99.90;;;;;;5054614;28;20462;-82
2023/02/21 14:05:01;;;;;;;33.63;17.70;;;10.60;99.90;;;;;;5059166;28;20467;-81
2023/02/21 14:07:58;;;;;;;39.00;20.63;;;10.60;99.90;;;;;;5060873;28;20435;-81
2023/02/21 14:10:44;;;;;;;41.87;20.10;;;10.90;99.90;;;;;;5058850;28;20540;-82
2023/02/21 14:13:22;;;;;;;41.10;19.80;;;11.00;99.90;;;;;;5058831;28;20487;-84
2023/02/21 14:15:57;;;;;;;45.97;21.43;;;10.90;99.90;;;;;;5058846;28;20451;-81
2023/02/21 14:18:30;;;;;;;52.07;22.40;;;10.90;99.90;;;;;;5059181;28;20431;-82
2023/02/21 14:20:58;;;;;;;45.60;22.90;;;10.90;99.90;;;;;;5058642;28;20456;-80
2023/02/21 14:23:35;;;;;;;42.30;22.60;;;11.10;99.90;;;;;;5058744;28;20479;-81
2023/02/21 14:26:05;;;;;;;43.10;24.27;;;11.10;99.90;;;;;;5059203;28;20800;-82
2023/02/21 14:29:04;;;;;;;49.07;25.17;;;10.90;99.90;;;;;;5059267;28;20448;-81
2023/02/21 14:31:48;;;;;;;47.87;23.13;;;11.10;99.90;;;;;;5059311;28;20452;-82
2023/02/21 14:34:22;;;;;;;49.27;23.37;;;10.90;99.90;;;;;;5058195;28;21041;-84
2023/02/21 14:36:51;;;;;;;40.43;20.03;;;10.80;99.90;;;;;;5061101;28;20456;-82
2023/02/21 14:39:19;;;;;;;44.07;20.10;;;10.60;99.90;;;;;;5058455;28;20451;-80
2023/02/21 14:42:00;;;;;;;43.50;21.87;;;10.70;99.90;;;;;;5059302;28;20652;-81
2023/02/21 14:44:34;;;;;;;49.30;23.17;;;10.70;99.90;;;;;;5058497;28;21008;-82
2023/02/21 14:47:28;;;;;;;48.10;22.47;;;10.80;99.90;;;;;;5058367;28;20459;-82
2023/02/21 14:50:22;;;;;;;42.10;20.23;;;10.70;99.90;;;;;;5058587;28;20452;-82
2023/02/21 14:53:26;;;;;;;50.07;20.80;;;10.70;99.90;;;;;;5059559;28;20475;-82
2023/02/21 14:56:21;;;;;;;42.83;20.30;;;10.80;99.90;;;;;;5065436;28;20511;-82
2023/02/21 14:59:09;;;;;;;37.80;19.40;;;10.70;99.90;;;;;;5033393;28;20471;-82